createdAt,value
2023-01-19T00:00:15.431Z,84.00
2023-01-19T00:02:51.145Z,84.30
2023-01-19T00:05:22.990Z,84.60
2023-01-19T00:07:54.827Z,84.50
2023-01-19T00:10:26.655Z,85.50
2023-01-19T00:12:58.791Z,92.50
2023-01-19T00:15:30.749Z,85.40
2023-01-19T00:18:05.215Z,85.40
2023-01-19T00:20:37.018Z,85.30
2023-01-19T00:23:08.967Z,85.20
2023-01-19T00:25:42.499Z,85.00
2023-01-19T00:28:21.311Z,89.20
2023-01-19T00:30:53.104Z,86.30
2023-01-19T00:33:27.534Z,89.00
2023-01-19T00:35:59.343Z,93.00
2023-01-19T00:38:31.180Z,90.30
2023-01-19T00:41:02.980Z,97.00
2023-01-19T00:43:34.801Z,93.10
2023-01-19T00:46:09.292Z,92.30
2023-01-19T00:48:44.970Z,94.70
2023-01-19T00:53:48.830Z,99.90
2023-01-19T00:56:20.596Z,98.20
2023-01-19T00:58:52.318Z,98.00
2023-01-19T01:01:45.198Z,97.80
2023-01-19T01:04:18.534Z,97.30
2023-01-19T01:06:53.113Z,98.00
2023-01-19T01:09:24.924Z,98.30
2023-01-19T01:24:44.025Z,99.90
2023-01-19T01:27:15.782Z,94.20
2023-01-19T01:29:47.716Z,93.70
2023-01-19T01:32:19.492Z,93.70
2023-01-19T01:34:51.285Z,93.90
2023-01-19T01:37:23.103Z,94.00
2023-01-19T01:39:59.583Z,94.20
2023-01-19T01:42:31.941Z,94.40
2023-01-19T01:45:06.256Z,94.40
2023-01-19T01:47:40.744Z,94.40
2023-01-19T01:50:14.359Z,94.40
2023-01-19T01:53:06.898Z,94.50
2023-01-19T01:55:45.424Z,94.60
2023-01-19T01:58:17.254Z,94.60
2023-01-19T02:01:07.627Z,94.60
2023-01-19T02:03:42.530Z,94.40
2023-01-19T02:06:14.819Z,94.30
2023-01-19T02:09:06.932Z,94.40
2023-01-19T02:12:00.574Z,94.50
2023-01-19T02:17:09.170Z,99.90
2023-01-19T02:19:41.875Z,98.00
2023-01-19T02:32:33.921Z,99.90
2023-01-19T02:35:06.375Z,99.10
2023-01-19T02:45:19.749Z,99.90
2023-01-19T02:47:54.392Z,95.10
2023-01-19T02:50:42.082Z,95.80
2023-01-19T02:53:21.561Z,98.40
2023-01-19T02:55:55.698Z,98.80
2023-01-19T02:58:32.580Z,99.80
2023-01-19T03:01:09.770Z,98.70
2023-01-19T03:03:50.064Z,95.00
2023-01-19T03:06:28.699Z,99.90
2023-01-19T03:09:04.412Z,99.90
2023-01-19T03:19:18.867Z,99.90
2023-01-19T03:21:53.846Z,94.20
2023-01-19T03:24:28.343Z,93.90
2023-01-19T03:29:37.164Z,99.90
2023-01-19T03:32:11.405Z,95.20
2023-01-19T03:34:47.087Z,94.20
2023-01-19T03:37:19.843Z,94.90
2023-01-19T03:39:51.844Z,98.50
2023-01-19T03:45:00.161Z,99.90
2023-01-19T03:47:32.084Z,99.90
2023-01-19T03:50:09.235Z,99.90
2023-01-19T03:52:41.152Z,96.60
2023-01-19T04:00:20.788Z,99.90
2023-01-19T04:02:52.759Z,99.90
2023-01-19T04:05:27.200Z,97.50
2023-01-19T04:15:39.849Z,99.90
2023-01-19T04:18:11.912Z,95.00
2023-01-19T04:20:46.268Z,94.70
2023-01-19T04:23:18.017Z,95.60
2023-01-19T04:25:49.784Z,95.80
2023-01-19T04:28:21.553Z,95.50
2023-01-19T04:30:53.479Z,96.60
2023-01-19T04:33:26.633Z,99.90
2023-01-19T04:36:01.720Z,98.60
2023-01-19T04:38:33.616Z,99.20
2023-01-19T04:41:05.422Z,99.90
2023-01-19T04:43:37.149Z,97.70
2023-01-19T04:51:18.021Z,99.90
2023-01-19T04:53:49.782Z,99.90
2023-01-19T04:56:21.550Z,99.70
2023-01-19T04:58:53.323Z,99.90
2023-01-19T05:01:25.278Z,99.90
2023-01-19T05:03:58.858Z,99.90
2023-01-19T05:06:33.471Z,99.90
2023-01-19T05:09:05.618Z,99.90
2023-01-19T05:11:37.451Z,99.90
2023-01-19T05:14:09.913Z,99.90
2023-01-19T05:47:25.521Z,99.90
2023-01-19T05:49:57.360Z,99.90
2023-01-19T05:52:29.178Z,99.90
2023-01-19T05:55:00.970Z,99.90
2023-01-19T05:57:32.787Z,99.90
2023-01-19T06:00:05.404Z,99.90
2023-01-19T06:02:39.914Z,99.90
2023-01-19T06:05:11.725Z,99.90
2023-01-19T06:07:43.498Z,99.90
2023-01-19T06:10:15.809Z,99.90
2023-01-19T06:12:47.569Z,99.90
2023-01-19T06:15:19.427Z,99.90
2023-01-19T06:17:53.835Z,99.90
2023-01-19T06:20:25.876Z,99.90
2023-01-19T06:22:57.785Z,99.90
2023-01-19T06:25:29.651Z,99.90
2023-01-19T06:28:01.419Z,99.90
2023-01-19T06:56:14.060Z,99.90
2023-01-19T06:58:46.813Z,99.90
2023-01-19T07:14:09.119Z,99.90
2023-01-19T07:57:43.619Z,99.90
2023-01-19T08:00:15.978Z,99.90
2023-01-19T08:02:49.937Z,99.90
2023-01-19T08:05:21.846Z,99.90
2023-01-19T08:07:54.255Z,99.90
2023-01-19T08:10:26.956Z,99.90
2023-01-19T08:13:01.648Z,99.90
2023-01-19T08:15:33.818Z,99.90
2023-01-19T08:18:06.393Z,99.90
2023-01-19T08:20:38.301Z,99.90
2023-01-19T08:23:10.652Z,99.90
2023-01-19T08:25:44.531Z,99.90
2023-01-19T08:28:19.113Z,99.90
2023-01-19T08:30:54.628Z,99.90
2023-01-19T08:51:35.189Z,99.90
2023-01-19T08:54:07.016Z,99.90
2023-01-19T09:27:20.035Z,99.90
2023-01-19T09:29:54.439Z,99.90
2023-01-19T10:08:35.960Z,99.90
2023-01-19T10:11:15.903Z,99.90
2023-01-19T10:13:49.466Z,99.90
2023-01-19T10:16:26.599Z,99.90
2023-01-19T10:19:00.758Z,99.90
2023-01-19T10:21:34.625Z,99.80
2023-01-19T10:24:14.675Z,99.90
2023-01-19T10:26:48.502Z,99.90
2023-01-19T10:29:22.350Z,99.90
2023-01-19T10:31:59.175Z,99.70
2023-01-19T10:34:30.977Z,99.90
2023-01-19T10:37:04.480Z,99.90
2023-01-19T10:39:39.196Z,99.90
2023-01-19T10:42:12.846Z,99.90
2023-01-19T10:44:45.811Z,99.90
2023-01-19T10:47:18.288Z,99.90
2023-01-19T10:49:50.416Z,99.90
2023-01-19T10:52:28.802Z,99.90
2023-01-19T10:55:04.559Z,99.90
2023-01-19T11:00:28.637Z,99.80
2023-01-19T11:03:01.175Z,99.90
2023-01-19T11:05:34.077Z,99.50
2023-01-19T11:08:21.475Z,97.80
2023-01-19T11:10:58.437Z,97.50
2023-01-19T11:13:30.681Z,97.40
2023-01-19T11:16:05.452Z,97.30
2023-01-19T11:18:38.191Z,97.30
2023-01-19T11:21:11.647Z,97.20
2023-01-19T11:23:46.100Z,97.20
2023-01-19T11:26:29.045Z,97.30
2023-01-19T11:29:01.750Z,97.50
2023-01-19T11:31:34.659Z,97.70
2023-01-19T11:34:22.379Z,97.70
2023-01-19T11:36:58.839Z,97.90
2023-01-19T11:39:32.068Z,98.10
2023-01-19T11:42:06.550Z,98.30
2023-01-19T11:44:42.875Z,98.40
2023-01-19T11:47:17.067Z,98.40
2023-01-19T11:49:51.095Z,98.40
2023-01-19T11:52:26.223Z,98.40
2023-01-19T11:55:01.015Z,98.60
2023-01-19T11:57:35.438Z,98.70
2023-01-19T12:00:17.711Z,98.80
2023-01-19T12:02:50.615Z,98.90
2023-01-19T12:05:22.755Z,99.30
2023-01-19T12:07:54.898Z,99.90
2023-01-19T12:10:29.036Z,99.90
2023-01-19T12:13:03.689Z,99.90
2023-01-19T12:15:36.975Z,99.90
2023-01-19T12:18:12.544Z,99.90
2023-01-19T12:20:46.434Z,99.90
2023-01-19T12:23:24.311Z,99.90
2023-01-19T12:26:08.576Z,99.90
2023-01-19T12:28:44.542Z,99.90
2023-01-19T12:31:17.661Z,99.90
2023-01-19T12:33:49.927Z,99.90
2023-01-19T12:36:37.424Z,99.90
2023-01-19T12:39:14.365Z,99.90
2023-01-19T12:41:47.228Z,99.90
2023-01-19T12:44:30.561Z,99.90
2023-01-19T12:47:20.047Z,99.90
2023-01-19T12:49:53.784Z,99.90
2023-01-19T12:52:28.288Z,99.90
2023-01-19T12:55:01.526Z,99.90
2023-01-19T12:57:35.151Z,99.90
2023-01-19T13:00:27.689Z,99.90
2023-01-19T13:02:59.893Z,99.90
2023-01-19T13:05:58.875Z,99.90
2023-01-19T13:08:45.490Z,99.90
2023-01-19T13:11:19.680Z,99.90
2023-01-19T13:14:21.424Z,99.90
2023-01-19T13:16:59.883Z,99.90
2023-01-19T13:19:49.793Z,99.90
2023-01-19T13:22:36.605Z,99.90
2023-01-19T13:25:11.321Z,99.90
2023-01-19T13:27:43.175Z,99.90
2023-01-19T13:30:16.218Z,99.90
2023-01-19T13:32:50.680Z,99.90
2023-01-19T13:35:22.861Z,99.90
2023-01-19T13:37:54.850Z,99.90
2023-01-19T13:40:32.141Z,99.90
2023-01-19T13:43:06.643Z,99.90
2023-01-19T13:45:40.088Z,99.90
2023-01-19T13:48:22.969Z,99.90
2023-01-19T13:50:58.963Z,99.90
2023-01-19T13:53:31.371Z,99.90
2023-01-19T13:56:10.616Z,99.90
2023-01-19T13:58:42.496Z,99.90
2023-01-19T14:01:21.558Z,99.90
2023-01-19T14:03:56.243Z,99.80
2023-01-19T14:06:33.082Z,99.60
2023-01-19T14:09:08.667Z,99.60
2023-01-19T14:11:40.655Z,99.60
2023-01-19T14:14:25.869Z,99.50
2023-01-19T14:16:57.750Z,99.40
2023-01-19T14:19:46.968Z,99.40
2023-01-19T14:22:18.800Z,99.20
2023-01-19T14:24:50.655Z,99.20
2023-01-19T14:27:24.192Z,98.90
2023-01-19T14:30:13.935Z,98.90
2023-01-19T14:32:47.620Z,98.70
2023-01-19T14:35:25.925Z,98.70
2023-01-19T14:37:57.780Z,98.60
2023-01-19T14:40:29.677Z,98.60
2023-01-19T14:43:04.288Z,98.50
2023-01-19T14:45:37.155Z,98.40
2023-01-19T14:48:16.360Z,98.50
2023-01-19T14:51:03.177Z,98.30
2023-01-19T14:53:36.639Z,98.30
2023-01-19T14:56:08.680Z,98.30
2023-01-19T14:58:40.465Z,97.90
2023-01-19T15:01:12.372Z,97.70
2023-01-19T15:03:45.641Z,97.80
2023-01-19T15:06:20.698Z,97.50
2023-01-19T15:08:53.612Z,97.30
2023-01-19T15:11:27.305Z,97.30
2023-01-19T15:13:59.256Z,97.30
2023-01-19T15:16:34.472Z,97.20
2023-01-19T15:19:06.813Z,97.20
2023-01-19T15:21:46.350Z,97.20
2023-01-19T15:24:18.311Z,97.30
2023-01-19T15:26:50.171Z,97.30
2023-01-19T15:29:23.374Z,97.40
2023-01-19T15:31:55.246Z,97.60
2023-01-19T15:34:27.046Z,97.70
2023-01-19T15:37:01.373Z,97.70
2023-01-19T15:39:33.219Z,97.80
2023-01-19T15:42:06.684Z,97.90
2023-01-19T15:44:38.549Z,97.90
2023-01-19T15:47:10.943Z,97.90
2023-01-19T15:49:42.777Z,97.90
2023-01-19T15:52:17.242Z,97.90
2023-01-19T15:54:49.027Z,98.10
2023-01-19T15:57:20.787Z,97.90
2023-01-19T15:59:53.425Z,97.80
2023-01-19T16:02:25.357Z,97.80
2023-01-19T16:04:57.292Z,97.80
2023-01-19T16:07:32.606Z,97.80
2023-01-19T16:10:06.415Z,97.80
2023-01-19T16:12:38.399Z,97.80
2023-01-19T16:15:11.450Z,97.80
2023-01-19T16:17:43.576Z,97.80
2023-01-19T16:20:15.950Z,97.70
2023-01-19T16:22:50.543Z,97.70
2023-01-19T16:25:23.571Z,97.70
2023-01-19T16:27:55.354Z,97.60
2023-01-19T16:30:27.151Z,97.60
2023-01-19T16:32:58.920Z,97.50
2023-01-19T16:35:30.790Z,98.20
2023-01-19T16:38:05.133Z,99.90
2023-01-19T16:40:36.943Z,99.90
2023-01-19T16:43:08.709Z,99.90
2023-01-19T16:45:55.998Z,99.90
2023-01-19T16:48:28.279Z,99.90
2023-01-19T16:51:01.194Z,99.90
2023-01-19T16:53:35.621Z,99.70
2023-01-19T16:56:08.253Z,98.90
2023-01-19T16:58:40.494Z,98.50
2023-01-19T17:01:13.403Z,98.40
2023-01-19T17:03:45.474Z,98.00
2023-01-19T17:06:18.337Z,97.10
2023-01-19T17:08:53.153Z,96.50
2023-01-19T17:11:25.634Z,95.70
2023-01-19T17:14:00.229Z,95.50
2023-01-19T17:16:32.983Z,95.20
2023-01-19T17:19:06.473Z,94.80
2023-01-19T17:21:38.239Z,94.60
2023-01-19T17:24:12.678Z,94.00
2023-01-19T17:26:46.031Z,93.60
2023-01-19T17:29:18.053Z,93.30
2023-01-19T17:31:49.983Z,93.10
2023-01-19T17:34:21.755Z,92.70
2023-01-19T17:36:54.244Z,92.70
2023-01-19T17:39:28.650Z,92.70
2023-01-19T17:42:00.431Z,93.20
2023-01-19T17:44:32.175Z,93.20
2023-01-19T17:47:03.963Z,92.50
2023-01-19T17:49:37.141Z,92.60
2023-01-19T17:52:08.958Z,92.20
2023-01-19T17:54:43.382Z,91.60
2023-01-19T17:57:15.172Z,91.10
2023-01-19T17:59:47.783Z,91.00
2023-01-19T18:02:24.399Z,90.70
2023-01-19T18:04:56.396Z,90.10
2023-01-19T18:10:03.566Z,84.80
2023-01-19T18:12:35.720Z,84.80
2023-01-19T18:15:08.757Z,84.40
2023-01-19T18:17:40.546Z,84.00
2023-01-19T18:20:12.741Z,83.60
2023-01-19T18:22:44.710Z,83.20
2023-01-19T18:25:19.167Z,82.90
2023-01-19T18:27:50.990Z,82.70
2023-01-19T18:30:22.881Z,82.40
2023-01-19T18:32:54.626Z,82.10
2023-01-19T18:35:26.718Z,81.80
2023-01-19T18:37:58.907Z,81.40
2023-01-19T18:40:33.279Z,81.10
2023-01-19T18:43:05.046Z,80.80
2023-01-19T18:45:38.231Z,80.60
2023-01-19T18:48:10.000Z,80.20
2023-01-19T18:50:42.815Z,80.00
2023-01-19T18:53:14.578Z,79.80
2023-01-19T18:55:53.188Z,79.50
2023-01-19T18:58:25.536Z,79.30
2023-01-19T19:00:57.835Z,79.10
2023-01-19T19:03:29.926Z,79.10
2023-01-19T19:06:02.168Z,79.10
2023-01-19T19:08:33.997Z,79.00
2023-01-19T19:11:09.173Z,79.00
2023-01-19T19:13:41.142Z,79.00
2023-01-19T19:16:13.313Z,79.00
2023-01-19T19:18:45.195Z,79.00
2023-01-19T19:21:17.984Z,79.00
2023-01-19T19:23:56.235Z,78.90
2023-01-19T19:26:31.302Z,79.10
2023-01-19T19:29:08.976Z,79.00
2023-01-19T19:31:41.087Z,79.00
2023-01-19T19:34:12.960Z,79.10
2023-01-19T19:36:44.736Z,78.20
2023-01-19T19:39:16.776Z,77.70
2023-01-19T19:41:51.123Z,77.50
2023-01-19T19:44:23.191Z,77.60
2023-01-19T19:46:54.932Z,77.70
2023-01-19T19:49:27.259Z,78.00
2023-01-19T19:51:59.039Z,78.80
2023-01-19T19:54:30.813Z,80.10
2023-01-19T19:57:05.158Z,81.00
2023-01-19T19:59:36.974Z,81.50
2023-01-19T20:02:09.832Z,81.70
2023-01-19T20:04:41.688Z,81.70
2023-01-19T20:07:13.485Z,81.60
2023-01-19T20:09:45.618Z,81.40
2023-01-19T20:12:20.042Z,81.30
2023-01-19T20:14:52.181Z,81.40
2023-01-19T20:17:24.776Z,81.70
2023-01-19T20:19:56.894Z,81.20
2023-01-19T20:22:29.125Z,81.20
2023-01-19T20:25:01.080Z,81.10
2023-01-19T20:27:36.749Z,81.00
2023-01-19T20:30:09.259Z,80.80
2023-01-19T20:32:43.936Z,80.50
2023-01-19T20:35:15.874Z,80.30
2023-01-19T20:37:47.880Z,80.10
2023-01-19T20:40:27.371Z,79.80
2023-01-19T20:43:04.559Z,79.60
2023-01-19T20:45:36.337Z,79.40
2023-01-19T20:48:08.181Z,79.20
2023-01-19T20:50:39.948Z,79.00
2023-01-19T20:53:11.832Z,78.80
2023-01-19T20:55:43.618Z,78.60
2023-01-19T20:58:18.109Z,78.50
2023-01-19T21:00:50.068Z,78.30
2023-01-19T21:03:21.863Z,78.20
2023-01-19T21:05:53.613Z,78.10
2023-01-19T21:08:25.664Z,78.10
2023-01-19T21:10:57.463Z,77.90
2023-01-19T21:13:32.139Z,77.90
2023-01-19T21:16:04.375Z,77.70
2023-01-19T21:18:36.173Z,77.60
2023-01-19T21:21:12.690Z,77.60
2023-01-19T21:23:55.509Z,77.50
2023-01-19T21:26:29.944Z,77.40
2023-01-19T21:29:04.528Z,77.20
2023-01-19T21:31:36.300Z,77.10
2023-01-19T21:34:08.741Z,76.90
2023-01-19T21:36:40.548Z,76.90
2023-01-19T21:39:12.343Z,76.80
2023-01-19T21:41:45.186Z,76.80
2023-01-19T21:44:19.623Z,76.80
2023-01-19T21:46:51.531Z,76.70
2023-01-19T21:49:23.439Z,76.70
2023-01-19T21:51:55.450Z,76.60
2023-01-19T21:54:27.462Z,76.60
2023-01-19T21:57:01.138Z,76.40
2023-01-19T21:59:35.487Z,76.40
2023-01-19T22:02:09.554Z,76.30
2023-01-19T22:04:41.416Z,76.30
2023-01-19T22:07:13.242Z,76.20
2023-01-19T22:09:45.004Z,76.20
2023-01-19T22:12:16.752Z,76.20
2023-01-19T22:14:51.099Z,76.10
2023-01-19T22:17:22.844Z,76.20
2023-01-19T22:19:54.625Z,76.00
2023-01-19T22:22:26.400Z,75.90
2023-01-19T22:24:58.277Z,75.90
2023-01-19T22:27:33.024Z,75.80
2023-01-19T22:30:08.294Z,75.80
2023-01-19T22:32:40.084Z,75.70
2023-01-19T22:35:12.369Z,75.80
2023-01-19T22:37:44.305Z,75.90
2023-01-19T22:40:16.498Z,76.00
2023-01-19T22:42:48.470Z,76.60
2023-01-19T22:45:22.900Z,76.20
2023-01-19T22:47:54.683Z,76.10
2023-01-19T22:50:26.527Z,76.00
2023-01-19T22:52:58.652Z,76.00
2023-01-19T22:55:30.729Z,75.90
2023-01-19T22:58:02.606Z,75.80
2023-01-19T23:00:36.928Z,75.80
2023-01-19T23:03:08.702Z,75.80
2023-01-19T23:05:40.507Z,75.60
2023-01-19T23:08:12.305Z,75.50
2023-01-19T23:11:03.512Z,75.40
2023-01-19T23:13:35.522Z,75.30
2023-01-19T23:16:11.469Z,75.30
2023-01-19T23:18:44.509Z,75.20
2023-01-19T23:21:18.731Z,75.20
2023-01-19T23:23:52.855Z,75.10
2023-01-19T23:26:25.118Z,75.20
2023-01-19T23:28:58.345Z,84.90
2023-01-19T23:31:33.440Z,84.80
2023-01-19T23:34:06.387Z,84.60
2023-01-19T23:36:39.549Z,85.30
2023-01-19T23:39:13.678Z,85.60
2023-01-19T23:41:45.842Z,85.70
2023-01-19T23:44:17.684Z,85.80
2023-01-19T23:46:58.381Z,86.20
2023-01-19T23:49:30.410Z,86.60
2023-01-19T23:52:02.217Z,86.90
2023-01-19T23:54:36.574Z,87.20
2023-01-19T23:57:08.366Z,87.60
2023-01-19T23:59:42.580Z,96.40
